createdAt,value
2018-09-27T00:01:40.899Z,5.20
2018-09-27T00:04:10.658Z,5.20
2018-09-27T00:06:39.223Z,5.10
2018-09-27T00:09:08.493Z,4.57
2018-09-27T00:11:37.201Z,4.37
2018-09-27T00:14:05.709Z,4.77
2018-09-27T00:16:34.235Z,4.43
2018-09-27T00:19:02.949Z,4.47
2018-09-27T00:21:31.431Z,4.43
2018-09-27T00:23:59.915Z,5.20
2018-09-27T00:26:28.486Z,4.50
2018-09-27T00:28:57.286Z,4.73
2018-09-27T00:31:26.165Z,4.63
2018-09-27T00:33:58.196Z,5.00
2018-09-27T00:36:26.708Z,4.23
2018-09-27T00:38:55.202Z,4.17
2018-09-27T00:41:23.890Z,4.60
2018-09-27T00:43:52.464Z,4.30
2018-09-27T00:46:20.951Z,4.77
2018-09-27T00:48:49.702Z,4.00
2018-09-27T00:51:18.258Z,4.27
2018-09-27T00:53:46.933Z,3.80
2018-09-27T00:56:15.454Z,4.13
2018-09-27T00:58:43.970Z,4.27
2018-09-27T01:01:12.484Z,4.27
2018-09-27T01:03:41.047Z,4.77
2018-09-27T01:06:09.581Z,4.13
2018-09-27T01:08:38.076Z,3.73
2018-09-27T01:11:06.668Z,4.37
2018-09-27T01:13:35.230Z,3.40
2018-09-27T01:16:03.682Z,4.00
2018-09-27T01:18:32.288Z,3.43
2018-09-27T01:21:00.859Z,3.93
2018-09-27T01:23:29.355Z,4.00
2018-09-27T01:25:57.873Z,3.80
2018-09-27T01:28:26.394Z,4.10
2018-09-27T01:30:54.845Z,4.20
2018-09-27T01:33:23.466Z,4.13
2018-09-27T01:35:52.150Z,4.50
2018-09-27T01:38:20.673Z,4.00
2018-09-27T01:40:49.151Z,3.90
2018-09-27T01:43:17.599Z,3.70
2018-09-27T01:45:46.173Z,4.37
2018-09-27T01:48:14.716Z,4.93
2018-09-27T01:50:44.098Z,4.07
2018-09-27T01:53:12.578Z,5.37
2018-09-27T01:55:41.029Z,4.90
2018-09-27T01:58:09.498Z,5.43
2018-09-27T02:00:38.090Z,4.93
2018-09-27T02:03:06.604Z,5.00
2018-09-27T02:05:35.090Z,5.10
2018-09-27T02:08:03.598Z,4.67
2018-09-27T02:10:32.054Z,5.10
2018-09-27T02:13:00.528Z,5.57
2018-09-27T02:15:28.975Z,4.67
2018-09-27T02:17:57.570Z,4.43
2018-09-27T02:20:26.023Z,4.13
2018-09-27T02:22:54.521Z,3.70
2018-09-27T02:25:23.112Z,3.97
2018-09-27T02:27:51.566Z,3.87
2018-09-27T02:30:20.044Z,3.60
2018-09-27T02:32:48.492Z,3.20
2018-09-27T02:35:17.042Z,2.80
2018-09-27T02:37:45.546Z,2.40
2018-09-27T02:40:14.018Z,2.47
2018-09-27T02:42:42.583Z,2.53
2018-09-27T02:45:11.089Z,2.23
2018-09-27T02:47:39.566Z,2.00
2018-09-27T02:50:08.087Z,2.23
2018-09-27T02:52:36.549Z,2.10
2018-09-27T02:55:05.194Z,2.30
2018-09-27T02:57:33.753Z,2.33
2018-09-27T03:00:02.220Z,2.23
2018-09-27T03:02:30.747Z,2.30
2018-09-27T03:04:59.621Z,2.00
2018-09-27T03:07:28.084Z,2.10
2018-09-27T03:09:56.606Z,1.80
2018-09-27T03:12:25.119Z,1.67
2018-09-27T03:14:53.629Z,1.90
2018-09-27T03:17:22.144Z,2.00
2018-09-27T03:19:50.716Z,1.63
2018-09-27T03:22:19.201Z,1.90
2018-09-27T03:24:47.654Z,2.20
2018-09-27T03:27:16.105Z,1.93
2018-09-27T03:29:44.578Z,2.00
2018-09-27T03:32:13.057Z,2.10
2018-09-27T03:34:41.526Z,2.00
2018-09-27T03:37:10.048Z,1.90
2018-09-27T03:39:38.581Z,2.00
2018-09-27T03:42:07.862Z,2.00
2018-09-27T03:44:36.326Z,1.97
2018-09-27T03:47:04.958Z,1.70
2018-09-27T03:49:33.448Z,1.83
2018-09-27T03:52:02.085Z,1.63
2018-09-27T03:54:30.624Z,1.60
2018-09-27T03:56:59.491Z,1.80
2018-09-27T03:59:28.034Z,1.70
2018-09-27T04:01:56.514Z,1.63
2018-09-27T04:04:25.106Z,1.80
2018-09-27T04:06:53.826Z,1.80
2018-09-27T04:09:22.278Z,1.63
2018-09-27T04:11:50.755Z,1.80
2018-09-27T04:14:19.403Z,2.10
2018-09-27T04:16:47.846Z,1.73
2018-09-27T04:19:16.316Z,1.70
2018-09-27T04:21:44.981Z,1.90
2018-09-27T04:24:13.497Z,1.60
2018-09-27T04:26:42.297Z,1.90
2018-09-27T04:29:10.846Z,1.63
2018-09-27T04:31:39.656Z,1.90
2018-09-27T04:34:08.525Z,1.90
2018-09-27T04:36:36.970Z,1.80
2018-09-27T04:39:08.785Z,2.07
2018-09-27T04:41:37.549Z,1.67
2018-09-27T04:44:06.227Z,1.67
2018-09-27T04:46:34.779Z,1.93
2018-09-27T04:49:03.510Z,2.30
2018-09-27T04:51:32.117Z,1.77
2018-09-27T04:54:00.611Z,1.73
2018-09-27T04:56:29.078Z,1.70
2018-09-27T04:58:57.565Z,1.90
2018-09-27T05:01:26.080Z,1.60
2018-09-27T05:03:54.651Z,1.53
2018-09-27T05:06:23.249Z,2.00
2018-09-27T05:08:51.813Z,2.00
2018-09-27T05:11:20.299Z,2.40
2018-09-27T05:13:48.770Z,2.00
2018-09-27T05:16:17.247Z,2.40
2018-09-27T05:18:45.825Z,2.17
2018-09-27T05:21:14.322Z,2.10
2018-09-27T05:23:42.816Z,2.23
2018-09-27T05:26:11.671Z,2.17
2018-09-27T05:28:40.424Z,2.30
2018-09-27T05:31:09.315Z,2.10
2018-09-27T05:33:38.061Z,2.00
2018-09-27T05:36:06.557Z,2.40
2018-09-27T05:38:35.146Z,2.07
2018-09-27T05:41:03.790Z,2.13
2018-09-27T05:43:32.346Z,2.27
2018-09-27T05:46:01.337Z,2.03
2018-09-27T05:48:30.282Z,2.03
2018-09-27T05:50:58.938Z,2.10
2018-09-27T05:53:27.593Z,2.20
2018-09-27T05:55:56.135Z,2.10
2018-09-27T05:58:24.865Z,2.23
2018-09-27T06:00:53.361Z,2.37
2018-09-27T06:03:21.877Z,2.50
2018-09-27T06:05:50.343Z,2.50
2018-09-27T06:08:18.966Z,3.00
2018-09-27T06:10:47.754Z,2.70
2018-09-27T06:13:16.402Z,2.43
2018-09-27T06:15:44.952Z,2.00
2018-09-27T06:18:13.654Z,2.23
2018-09-27T06:20:42.973Z,2.27
2018-09-27T06:23:11.538Z,2.30
2018-09-27T06:25:40.047Z,2.37
2018-09-27T06:28:08.577Z,2.17
2018-09-27T06:30:37.117Z,2.40
2018-09-27T06:33:05.959Z,2.20
2018-09-27T06:35:34.558Z,2.10
2018-09-27T06:38:03.073Z,2.17
2018-09-27T06:40:31.541Z,2.77
2018-09-27T06:43:00.231Z,2.63
2018-09-27T06:45:29.134Z,2.40
2018-09-27T06:47:59.407Z,2.20
2018-09-27T06:50:28.839Z,3.00
2018-09-27T06:53:00.425Z,2.73
2018-09-27T06:55:29.560Z,2.93
2018-09-27T06:58:02.851Z,2.70
2018-09-27T07:00:33.486Z,2.60
2018-09-27T07:03:03.824Z,1.90
2018-09-27T07:05:34.418Z,2.63
2018-09-27T07:08:03.173Z,2.40
2018-09-27T07:10:31.785Z,2.40
2018-09-27T07:13:01.049Z,2.87
2018-09-27T07:15:29.643Z,2.60
2018-09-27T07:17:58.742Z,2.53
2018-09-27T07:20:27.778Z,2.77
2018-09-27T07:22:56.247Z,2.23
2018-09-27T07:25:24.694Z,2.40
2018-09-27T07:27:53.167Z,2.53
2018-09-27T07:30:21.681Z,2.87
2018-09-27T07:32:50.373Z,2.80
2018-09-27T07:35:18.935Z,2.87
2018-09-27T07:37:47.642Z,2.53
2018-09-27T07:40:16.233Z,2.67
2018-09-27T07:42:44.754Z,2.83
2018-09-27T07:45:13.324Z,2.30
2018-09-27T07:47:41.781Z,3.17
2018-09-27T07:50:10.283Z,3.00
2018-09-27T07:52:38.738Z,3.07
2018-09-27T07:55:07.330Z,3.13
2018-09-27T07:57:35.835Z,3.00
2018-09-27T08:00:04.459Z,3.07
2018-09-27T08:02:33.058Z,3.53
2018-09-27T08:05:01.526Z,2.77
2018-09-27T08:07:30.210Z,3.17
2018-09-27T08:09:58.712Z,2.90
2018-09-27T08:12:27.373Z,2.60
2018-09-27T08:14:55.867Z,2.63
2018-09-27T08:17:24.410Z,2.80
2018-09-27T08:19:52.889Z,2.30
2018-09-27T08:22:21.731Z,2.57
2018-09-27T08:24:50.349Z,2.40
2018-09-27T08:27:18.976Z,2.50
2018-09-27T08:29:47.494Z,2.70
2018-09-27T08:32:16.082Z,2.90
2018-09-27T08:34:44.574Z,2.80
2018-09-27T08:37:13.042Z,2.27
2018-09-27T08:39:41.667Z,2.50
2018-09-27T08:42:10.630Z,2.10
2018-09-27T08:44:39.261Z,2.73
2018-09-27T08:47:08.012Z,2.27
2018-09-27T08:49:36.606Z,2.40
2018-09-27T08:52:05.149Z,2.23
2018-09-27T08:54:33.717Z,2.07
2018-09-27T08:57:02.210Z,2.50
2018-09-27T08:59:30.823Z,2.47
2018-09-27T09:01:59.435Z,2.17
2018-09-27T09:04:27.974Z,2.53
2018-09-27T09:06:56.745Z,2.23
2018-09-27T09:09:25.329Z,2.13
2018-09-27T09:11:53.816Z,2.33
2018-09-27T09:14:22.265Z,2.50
2018-09-27T09:16:50.750Z,2.20
2018-09-27T09:19:19.290Z,2.57
2018-09-27T09:21:47.778Z,2.90
2018-09-27T09:24:16.658Z,2.53
2018-09-27T09:26:45.207Z,2.70
2018-09-27T09:29:13.785Z,2.77
2018-09-27T09:31:42.339Z,2.80
2018-09-27T09:34:10.982Z,2.70
2018-09-27T09:36:39.578Z,3.00
2018-09-27T09:39:08.826Z,2.83
2018-09-27T09:41:37.485Z,2.93
2018-09-27T09:44:06.487Z,2.80
2018-09-27T09:46:35.030Z,3.03
2018-09-27T09:49:03.550Z,3.17
2018-09-27T09:51:32.044Z,3.13
2018-09-27T09:54:00.510Z,2.80
2018-09-27T09:56:29.514Z,2.83
2018-09-27T09:58:58.050Z,2.90
2018-09-27T10:01:26.536Z,2.73
2018-09-27T10:03:55.043Z,2.60
2018-09-27T10:06:23.526Z,2.80
2018-09-27T10:08:52.033Z,2.90
2018-09-27T10:11:20.522Z,2.87
2018-09-27T10:13:49.014Z,2.80
2018-09-27T10:16:17.484Z,3.23
2018-09-27T10:18:45.978Z,3.27
2018-09-27T10:21:14.495Z,2.63
2018-09-27T10:23:42.957Z,3.10
2018-09-27T10:26:11.457Z,3.37
2018-09-27T10:28:39.945Z,3.37
2018-09-27T10:31:08.829Z,3.07
2018-09-27T10:33:37.431Z,3.20
2018-09-27T10:36:05.892Z,3.17
2018-09-27T10:38:34.378Z,3.17
2018-09-27T10:41:04.542Z,3.00
2018-09-27T10:43:33.087Z,3.10
2018-09-27T10:46:01.631Z,3.20
2018-09-27T10:48:30.125Z,2.90
2018-09-27T10:50:58.625Z,2.70
2018-09-27T10:53:27.185Z,2.77
2018-09-27T10:55:55.866Z,3.93
2018-09-27T10:58:24.493Z,3.17
2018-09-27T11:00:53.173Z,2.83
2018-09-27T11:03:21.655Z,3.30
2018-09-27T11:05:50.163Z,3.00
2018-09-27T11:08:18.698Z,3.33
2018-09-27T11:10:47.217Z,3.47
2018-09-27T11:13:15.707Z,3.40
2018-09-27T11:15:44.239Z,3.30
2018-09-27T11:18:12.716Z,2.90
2018-09-27T11:20:41.195Z,3.50
2018-09-27T11:23:09.676Z,3.30
2018-09-27T11:25:38.173Z,2.80
2018-09-27T11:28:07.028Z,3.50
2018-09-27T11:30:35.934Z,3.10
2018-09-27T11:33:04.869Z,3.20
2018-09-27T11:35:33.344Z,3.20
2018-09-27T11:38:01.846Z,3.73
2018-09-27T11:40:30.340Z,3.70
2018-09-27T11:42:58.952Z,3.40
2018-09-27T11:45:27.437Z,3.63
2018-09-27T11:47:56.072Z,2.97
2018-09-27T11:50:24.586Z,2.90
2018-09-27T11:52:53.097Z,3.90
2018-09-27T11:55:21.597Z,3.80
2018-09-27T11:57:50.089Z,4.00
2018-09-27T12:00:18.766Z,3.93
2018-09-27T12:02:47.272Z,3.73
2018-09-27T12:05:15.889Z,4.00
2018-09-27T12:07:44.693Z,3.83
2018-09-27T12:10:13.183Z,3.70
2018-09-27T12:12:41.728Z,4.20
2018-09-27T12:15:10.386Z,4.37
2018-09-27T12:17:39.050Z,4.60
2018-09-27T12:20:07.651Z,4.60
2018-09-27T12:22:36.070Z,4.30
2018-09-27T12:25:05.720Z,4.17
2018-09-27T12:27:34.304Z,3.90
2018-09-27T12:30:04.152Z,4.30
2018-09-27T12:32:32.642Z,4.63
2018-09-27T12:35:01.159Z,4.83
2018-09-27T12:37:29.844Z,4.17
2018-09-27T12:39:58.798Z,4.23
2018-09-27T12:42:28.496Z,4.30
2018-09-27T12:44:57.995Z,4.27
2018-09-27T12:47:27.527Z,3.73
2018-09-27T12:49:57.499Z,4.17
2018-09-27T12:52:27.567Z,3.90
2018-09-27T12:54:56.859Z,3.80
2018-09-27T12:57:25.810Z,4.17
2018-09-27T12:59:54.700Z,4.20
2018-09-27T13:02:23.668Z,4.40
2018-09-27T13:04:53.487Z,4.10
2018-09-27T13:07:22.066Z,4.33
2018-09-27T13:09:51.086Z,3.87
2018-09-27T13:12:19.827Z,3.50
2018-09-27T13:14:48.607Z,4.10
2018-09-27T13:17:17.417Z,3.33
2018-09-27T13:19:46.032Z,3.53
2018-09-27T13:22:15.347Z,4.13
2018-09-27T13:24:44.512Z,4.20
2018-09-27T13:27:13.328Z,3.43
2018-09-27T13:29:42.018Z,3.43
2018-09-27T13:32:10.729Z,3.90
2018-09-27T13:34:40.531Z,3.10
2018-09-27T13:37:09.338Z,3.27
2018-09-27T13:39:37.774Z,3.10
2018-09-27T13:42:06.305Z,3.70
2018-09-27T13:44:34.785Z,3.70
2018-09-27T13:47:03.282Z,3.43
2018-09-27T13:49:31.805Z,4.53
2018-09-27T13:52:00.299Z,4.90
2018-09-27T13:54:28.992Z,7.93
2018-09-27T13:56:57.637Z,4.33
2018-09-27T13:59:26.166Z,4.30
2018-09-27T14:01:54.698Z,5.40
2018-09-27T14:04:23.970Z,4.67
2018-09-27T14:06:52.530Z,3.90
2018-09-27T14:09:21.011Z,3.67
2018-09-27T14:11:49.511Z,3.83
2018-09-27T14:14:18.061Z,3.40
2018-09-27T14:16:46.644Z,3.93
2018-09-27T14:19:15.108Z,4.00
2018-09-27T14:21:43.599Z,4.07
2018-09-27T14:24:12.077Z,3.97
2018-09-27T14:26:40.558Z,3.40
2018-09-27T14:29:09.033Z,3.70
2018-09-27T14:31:37.540Z,3.73
2018-09-27T14:34:06.339Z,4.03
2018-09-27T14:36:34.858Z,3.83
2018-09-27T14:39:04.407Z,3.83
2018-09-27T14:41:33.627Z,3.93
2018-09-27T14:44:02.280Z,6.20
2018-09-27T14:46:31.438Z,11.83
2018-09-27T14:48:59.946Z,9.50
2018-09-27T14:51:29.105Z,6.20
2018-09-27T14:53:57.641Z,5.77
2018-09-27T14:56:26.145Z,4.20
2018-09-27T14:58:54.859Z,3.83
2018-09-27T15:01:23.530Z,4.20
2018-09-27T15:03:52.097Z,3.67
2018-09-27T15:06:20.968Z,4.70
2018-09-27T15:08:49.410Z,3.70
2018-09-27T15:11:17.975Z,3.83
2018-09-27T15:13:46.407Z,3.27
2018-09-27T15:16:14.917Z,3.60
2018-09-27T15:18:44.213Z,3.60
2018-09-27T15:21:12.698Z,4.30
2018-09-27T15:23:41.164Z,4.40
2018-09-27T15:26:09.697Z,4.40
2018-09-27T15:28:38.201Z,4.00
2018-09-27T15:31:07.063Z,3.70
2018-09-27T15:33:36.259Z,4.10
2018-09-27T15:36:05.428Z,4.00
2018-09-27T15:38:33.894Z,4.70
2018-09-27T15:41:02.617Z,3.80
2018-09-27T15:43:31.282Z,4.70
2018-09-27T15:45:59.757Z,6.07
2018-09-27T15:48:28.250Z,4.70
2018-09-27T15:50:56.759Z,4.37
2018-09-27T15:53:25.259Z,5.23
2018-09-27T15:55:53.738Z,5.07
2018-09-27T15:58:22.243Z,5.20
2018-09-27T16:00:50.749Z,5.30
2018-09-27T16:03:19.230Z,5.10
2018-09-27T16:05:47.713Z,7.43
2018-09-27T16:08:16.183Z,10.10
2018-09-27T16:10:44.721Z,10.07
2018-09-27T16:13:13.432Z,11.30
2018-09-27T16:15:42.084Z,10.27
2018-09-27T16:18:10.573Z,8.40
2018-09-27T16:20:39.927Z,8.20
2018-09-27T16:23:08.698Z,19.47
2018-09-27T16:25:37.443Z,15.13
2018-09-27T16:28:06.094Z,14.77
2018-09-27T16:30:34.723Z,10.50
2018-09-27T16:33:03.513Z,11.53
2018-09-27T16:35:32.001Z,8.10
2018-09-27T16:38:00.655Z,7.33
2018-09-27T16:40:29.261Z,8.73
2018-09-27T16:42:57.778Z,8.70
2018-09-27T16:45:26.246Z,9.40
2018-09-27T16:47:54.791Z,9.43
2018-09-27T16:50:23.614Z,9.77
2018-09-27T16:52:52.194Z,8.43
2018-09-27T16:55:20.730Z,8.93
2018-09-27T16:57:49.447Z,9.30
2018-09-27T17:00:17.938Z,9.07
2018-09-27T17:02:46.685Z,9.13
2018-09-27T17:05:15.169Z,8.30
2018-09-27T17:07:44.215Z,9.43
2018-09-27T17:10:12.955Z,11.23
2018-09-27T17:12:41.412Z,13.67
2018-09-27T17:15:09.931Z,16.13
2018-09-27T17:17:38.539Z,18.70
2018-09-27T17:20:07.806Z,18.87
2018-09-27T17:22:36.521Z,32.93
2018-09-27T17:25:05.717Z,45.23
2018-09-27T17:27:34.222Z,27.47
2018-09-27T17:30:02.698Z,14.70
2018-09-27T17:32:31.249Z,15.97
2018-09-27T17:34:59.793Z,14.23
2018-09-27T17:37:28.302Z,14.77
2018-09-27T17:39:56.746Z,14.00
2018-09-27T17:42:25.254Z,14.60
2018-09-27T17:44:53.690Z,13.20
2018-09-27T17:47:22.130Z,14.27
2018-09-27T17:49:50.709Z,18.63
2018-09-27T17:52:19.218Z,21.13
2018-09-27T17:54:47.833Z,25.20
2018-09-27T17:57:20.454Z,25.27
2018-09-27T17:59:51.564Z,23.70
2018-09-27T18:02:20.311Z,23.67
2018-09-27T18:04:48.845Z,21.03
2018-09-27T18:07:17.343Z,21.80
2018-09-27T18:09:45.931Z,22.27
2018-09-27T18:12:14.454Z,26.43
2018-09-27T18:14:43.043Z,27.53
2018-09-27T18:17:11.653Z,27.23
2018-09-27T18:19:41.082Z,24.40
2018-09-27T18:22:09.984Z,27.37
2018-09-27T18:24:38.661Z,20.07
2018-09-27T18:27:07.387Z,19.90
2018-09-27T18:29:35.923Z,20.07
2018-09-27T18:32:05.057Z,18.60
2018-09-27T18:34:33.534Z,17.80
2018-09-27T18:37:01.979Z,15.63
2018-09-27T18:39:30.759Z,15.60
2018-09-27T18:41:59.422Z,16.93
2018-09-27T18:44:27.949Z,17.30
2018-09-27T18:46:56.507Z,23.00
2018-09-27T18:49:25.025Z,26.90
2018-09-27T18:51:53.805Z,42.80
2018-09-27T18:54:23.284Z,81.53
2018-09-27T18:56:52.780Z,60.67
2018-09-27T18:59:21.379Z,35.63
2018-09-27T19:01:50.933Z,29.47
2018-09-27T19:04:20.011Z,30.83
2018-09-27T19:06:48.873Z,28.20
2018-09-27T19:09:17.426Z,26.67
2018-09-27T19:11:45.940Z,25.80
2018-09-27T19:14:14.463Z,20.97
2018-09-27T19:16:44.651Z,18.37
2018-09-27T19:19:13.094Z,17.90
2018-09-27T19:21:41.701Z,18.97
2018-09-27T19:24:10.253Z,19.27
2018-09-27T19:26:38.894Z,19.23
2018-09-27T19:29:07.529Z,20.30
2018-09-27T19:31:36.242Z,20.83
2018-09-27T19:34:05.958Z,22.70
2018-09-27T19:36:34.670Z,24.50
2018-09-27T19:39:03.431Z,28.03
2018-09-27T19:41:31.908Z,29.87
2018-09-27T19:44:00.436Z,28.93
2018-09-27T19:46:29.146Z,27.63
2018-09-27T19:48:57.579Z,24.30
2018-09-27T19:51:26.343Z,24.97
2018-09-27T19:53:55.518Z,28.77
2018-09-27T19:56:24.891Z,28.00
2018-09-27T19:58:54.497Z,26.43
2018-09-27T20:01:23.956Z,26.20
2018-09-27T20:03:53.140Z,25.93
2018-09-27T20:06:22.450Z,26.80
2018-09-27T20:08:51.009Z,25.70
2018-09-27T20:11:19.566Z,26.03
2018-09-27T20:13:48.088Z,26.13
2018-09-27T20:16:16.648Z,26.70
2018-09-27T20:18:45.091Z,27.57
2018-09-27T20:21:13.609Z,26.63
2018-09-27T20:23:42.197Z,42.90
2018-09-27T20:26:10.888Z,46.13
2018-09-27T20:28:39.400Z,53.40
2018-09-27T20:31:08.109Z,56.50
2018-09-27T20:33:36.641Z,61.93
2018-09-27T20:36:05.140Z,62.57
2018-09-27T20:38:33.698Z,55.00
2018-09-27T20:41:02.745Z,49.17
2018-09-27T20:43:31.307Z,45.63
2018-09-27T20:45:59.897Z,44.13
2018-09-27T20:48:28.619Z,43.60
2018-09-27T20:50:57.124Z,38.83
2018-09-27T20:53:26.657Z,33.50
2018-09-27T20:55:55.343Z,39.00
2018-09-27T20:58:23.909Z,43.47
2018-09-27T21:00:52.441Z,37.33
2018-09-27T21:03:21.055Z,47.13
2018-09-27T21:05:50.373Z,56.00
2018-09-27T21:08:18.917Z,52.97
2018-09-27T21:10:47.394Z,49.17
2018-09-27T21:13:15.872Z,42.67
2018-09-27T21:15:45.446Z,39.97
2018-09-27T21:18:13.955Z,38.03
2018-09-27T21:20:42.401Z,33.17
2018-09-27T21:23:10.888Z,32.57
2018-09-27T21:25:39.432Z,29.83
2018-09-27T21:28:07.956Z,29.03
2018-09-27T21:30:36.425Z,30.50
2018-09-27T21:33:04.926Z,29.90
2018-09-27T21:35:33.547Z,30.43
2018-09-27T21:38:02.038Z,30.33
2018-09-27T21:40:30.535Z,28.80
2018-09-27T21:42:58.974Z,31.63
2018-09-27T21:45:27.463Z,31.53
2018-09-27T21:47:56.010Z,27.77
2018-09-27T21:50:24.854Z,28.40
2018-09-27T21:52:53.431Z,28.90
2018-09-27T21:55:21.886Z,27.27
2018-09-27T21:57:50.540Z,26.73
2018-09-27T22:00:19.037Z,26.47
2018-09-27T22:02:47.490Z,27.73
2018-09-27T22:05:16.805Z,26.40
2018-09-27T22:07:45.535Z,27.37
2018-09-27T22:10:14.082Z,26.57
2018-09-27T22:12:42.810Z,26.80
2018-09-27T22:15:11.306Z,26.90
2018-09-27T22:17:39.756Z,26.43
2018-09-27T22:20:08.299Z,28.50
2018-09-27T22:22:36.870Z,29.13
2018-09-27T22:25:05.568Z,27.33
2018-09-27T22:27:34.041Z,28.63
2018-09-27T22:30:02.500Z,27.30
2018-09-27T22:32:31.072Z,29.67
2018-09-27T22:34:59.547Z,30.13
2018-09-27T22:37:28.968Z,29.83
2018-09-27T22:39:57.429Z,29.27
2018-09-27T22:42:25.896Z,29.73
2018-09-27T22:44:54.377Z,29.83
2018-09-27T22:47:22.887Z,30.17
2018-09-27T22:49:51.451Z,30.87
2018-09-27T22:52:20.050Z,30.40
2018-09-27T22:54:48.868Z,28.47
2018-09-27T22:57:17.333Z,31.23
2018-09-27T22:59:45.777Z,28.57
2018-09-27T23:02:14.278Z,29.23
2018-09-27T23:04:42.758Z,29.37
2018-09-27T23:07:11.297Z,27.73
2018-09-27T23:09:39.900Z,27.80
2018-09-27T23:12:08.566Z,26.83
2018-09-27T23:14:37.026Z,29.73
2018-09-27T23:17:06.470Z,28.57
2018-09-27T23:19:34.960Z,26.67
2018-09-27T23:22:03.494Z,27.23
2018-09-27T23:24:31.968Z,27.60
2018-09-27T23:27:00.402Z,25.93
2018-09-27T23:29:28.857Z,26.40
2018-09-27T23:31:57.371Z,25.77
2018-09-27T23:34:25.894Z,27.73
2018-09-27T23:36:55.469Z,25.67
2018-09-27T23:39:23.930Z,26.10
2018-09-27T23:41:52.495Z,25.13
2018-09-27T23:44:21.017Z,26.17
2018-09-27T23:46:49.639Z,26.10
2018-09-27T23:49:18.122Z,26.73
2018-09-27T23:51:46.614Z,27.73
2018-09-27T23:54:15.164Z,26.80
2018-09-27T23:56:43.647Z,29.73
2018-09-27T23:59:12.145Z,28.47
